createdAt,value
2023-04-12T00:01:01.400Z,2.60
2023-04-12T00:03:28.393Z,2.50
2023-04-12T00:05:55.505Z,2.50
2023-04-12T00:08:26.338Z,2.50
2023-04-12T00:10:53.277Z,2.50
2023-04-12T00:13:20.390Z,2.50
2023-04-12T00:15:47.237Z,2.40
2023-04-12T00:18:14.158Z,2.40
2023-04-12T00:20:41.098Z,2.30
2023-04-12T00:23:09.809Z,2.30
2023-04-12T00:25:39.291Z,2.20
2023-04-12T00:28:06.320Z,2.30
2023-04-12T00:30:33.324Z,2.20
2023-04-12T00:33:00.295Z,2.20
2023-04-12T00:35:27.221Z,2.20
2023-04-12T00:37:54.793Z,2.20
2023-04-12T00:40:22.312Z,2.10
2023-04-12T00:42:49.136Z,2.10
2023-04-12T00:45:16.333Z,2.00
2023-04-12T00:47:43.572Z,2.00
2023-04-12T00:50:11.156Z,2.00
2023-04-12T00:52:39.194Z,2.00
2023-04-12T00:55:07.468Z,2.00
2023-04-12T00:57:37.066Z,2.00
2023-04-12T01:00:06.195Z,1.90
2023-04-12T01:02:33.480Z,1.90
2023-04-12T01:05:01.071Z,1.90
2023-04-12T01:07:54.379Z,1.90
2023-04-12T01:10:38.862Z,1.90
2023-04-12T01:13:09.989Z,1.90
2023-04-12T01:15:39.740Z,1.90
2023-04-12T01:18:13.635Z,1.80
2023-04-12T01:20:55.048Z,1.80
2023-04-12T01:23:40.528Z,1.80
2023-04-12T01:26:44.439Z,1.80
2023-04-12T01:29:14.554Z,1.80
2023-04-12T01:31:49.545Z,1.80
2023-04-12T01:34:16.978Z,1.70
2023-04-12T01:36:47.209Z,1.70
2023-04-12T01:39:14.372Z,1.60
2023-04-12T01:41:48.899Z,1.60
2023-04-12T01:44:16.437Z,1.60
2023-04-12T01:46:44.666Z,1.60
2023-04-12T01:49:13.010Z,1.60
2023-04-12T01:52:01.232Z,1.60
2023-04-12T01:54:30.493Z,1.60
2023-04-12T01:57:01.311Z,1.50
2023-04-12T01:59:43.601Z,1.50
2023-04-12T02:02:13.783Z,1.50
2023-04-12T02:04:41.607Z,1.50
2023-04-12T02:07:09.493Z,1.50
2023-04-12T02:09:39.731Z,1.50
2023-04-12T02:12:07.421Z,1.50
2023-04-12T02:14:34.426Z,1.50
2023-04-12T02:17:04.386Z,1.50
2023-04-12T02:19:32.293Z,1.50
2023-04-12T02:21:59.175Z,1.60
2023-04-12T02:24:27.301Z,1.60
2023-04-12T02:26:55.095Z,1.60
2023-04-12T02:29:22.143Z,1.60
2023-04-12T02:31:49.027Z,1.60
2023-04-12T02:34:17.992Z,1.60
2023-04-12T02:36:48.735Z,1.60
2023-04-12T02:39:18.763Z,1.70
2023-04-12T02:41:46.033Z,1.70
2023-04-12T02:44:13.044Z,1.80
2023-04-12T02:46:39.859Z,1.80
2023-04-12T02:49:06.789Z,1.90
2023-04-12T02:51:33.654Z,1.90
2023-04-12T02:54:01.292Z,2.00
2023-04-12T02:56:29.917Z,2.10
2023-04-12T02:58:56.909Z,2.10
2023-04-12T03:01:23.917Z,2.20
2023-04-12T03:03:50.884Z,2.30
2023-04-12T03:06:17.757Z,2.30
2023-04-12T03:08:44.842Z,2.40
2023-04-12T03:11:11.692Z,2.50
2023-04-12T03:13:38.455Z,2.50
2023-04-12T03:16:21.961Z,2.60
2023-04-12T03:18:50.417Z,2.60
2023-04-12T03:21:17.822Z,2.60
2023-04-12T03:23:44.725Z,2.70
2023-04-12T03:26:11.717Z,2.70
2023-04-12T03:28:38.577Z,2.80
2023-04-12T03:31:05.751Z,2.80
2023-04-12T03:33:32.534Z,2.90
2023-04-12T03:35:59.434Z,2.90
2023-04-12T03:38:26.373Z,2.90
2023-04-12T03:40:53.183Z,2.90
2023-04-12T03:43:20.035Z,3.00
2023-04-12T03:45:46.867Z,2.90
2023-04-12T03:48:13.859Z,2.90
2023-04-12T03:50:48.489Z,3.00
2023-04-12T03:53:15.608Z,2.90
2023-04-12T03:55:43.326Z,3.00
2023-04-12T03:58:10.209Z,2.90
2023-04-12T04:00:36.990Z,2.90
2023-04-12T04:03:05.664Z,2.90
2023-04-12T04:05:32.605Z,2.90
2023-04-12T04:08:02.237Z,2.90
2023-04-12T04:10:29.339Z,2.90
2023-04-12T04:12:56.261Z,2.90
2023-04-12T04:15:23.239Z,3.00
2023-04-12T04:17:50.217Z,3.00
2023-04-12T04:20:18.049Z,3.00
2023-04-12T04:22:48.144Z,3.00
2023-04-12T04:25:15.492Z,3.00
2023-04-12T04:27:44.811Z,3.10
2023-04-12T04:30:12.399Z,3.10
2023-04-12T04:32:39.535Z,3.10
2023-04-12T04:35:07.025Z,3.10
2023-04-12T04:37:37.222Z,3.10
2023-04-12T04:40:14.038Z,3.10
2023-04-12T04:42:42.890Z,3.10
2023-04-12T04:45:14.009Z,3.20
2023-04-12T04:47:41.248Z,3.30
2023-04-12T04:50:08.406Z,3.30
2023-04-12T04:52:37.612Z,3.30
2023-04-12T04:55:07.424Z,3.40
2023-04-12T04:57:35.527Z,3.40
2023-04-12T05:00:11.002Z,3.40
2023-04-12T05:02:40.133Z,3.50
2023-04-12T05:05:08.012Z,3.50
2023-04-12T05:07:34.845Z,3.50
2023-04-12T05:10:02.380Z,3.50
2023-04-12T05:12:29.205Z,3.50
2023-04-12T05:15:10.602Z,3.60
2023-04-12T05:17:38.350Z,3.60
2023-04-12T05:20:08.028Z,3.60
2023-04-12T05:22:35.665Z,3.60
2023-04-12T05:25:03.616Z,3.70
2023-04-12T05:27:30.959Z,3.70
2023-04-12T05:29:58.317Z,3.70
2023-04-12T05:32:26.079Z,3.80
2023-04-12T05:34:53.031Z,3.80
2023-04-12T05:37:19.894Z,3.90
2023-04-12T05:39:46.730Z,3.90
2023-04-12T05:42:13.566Z,4.00
2023-04-12T05:44:40.458Z,4.10
2023-04-12T05:47:07.273Z,4.10
2023-04-12T05:49:34.110Z,4.10
2023-04-12T05:52:00.992Z,4.10
2023-04-12T05:54:27.821Z,4.20
2023-04-12T05:56:55.048Z,4.20
2023-04-12T05:59:22.417Z,4.20
2023-04-12T06:01:49.325Z,4.20
2023-04-12T06:04:16.790Z,4.20
2023-04-12T06:06:43.914Z,4.30
2023-04-12T06:09:11.108Z,4.30
2023-04-12T06:11:39.283Z,4.30
2023-04-12T06:14:06.359Z,4.40
2023-04-12T06:16:33.296Z,4.50
2023-04-12T06:19:00.446Z,4.60
2023-04-12T06:21:27.744Z,4.70
2023-04-12T06:23:54.544Z,4.80
2023-04-12T06:26:21.436Z,4.90
2023-04-12T06:28:48.300Z,4.90
2023-04-12T06:31:16.884Z,5.00
2023-04-12T06:33:43.862Z,5.10
2023-04-12T06:36:11.656Z,5.20
2023-04-12T12:07:58.411Z,11.90
2023-04-12T12:10:41.979Z,11.80
2023-04-12T12:13:17.889Z,11.80
2023-04-12T12:15:48.736Z,11.70
2023-04-12T12:18:16.446Z,11.60
2023-04-12T12:20:53.197Z,11.50
2023-04-12T12:26:17.115Z,11.40
2023-04-12T12:28:50.155Z,11.30
2023-04-12T12:31:25.360Z,11.20
2023-04-12T12:34:01.219Z,11.00
2023-04-12T12:36:36.647Z,11.00
2023-04-12T12:39:10.648Z,10.90
2023-04-12T12:41:38.252Z,10.80
2023-04-12T12:44:05.252Z,10.70
2023-04-12T12:46:50.840Z,10.60
2023-04-12T12:49:19.334Z,10.50
2023-04-12T12:51:47.053Z,10.40
2023-04-12T12:54:25.148Z,10.30
2023-04-12T12:56:58.910Z,10.20
2023-04-12T12:59:26.028Z,10.10
2023-04-12T13:01:53.110Z,10.00
2023-04-12T13:04:22.363Z,9.90
2023-04-12T13:06:49.230Z,9.90
2023-04-12T13:09:16.156Z,9.90
2023-04-12T13:11:42.905Z,9.80
2023-04-12T13:14:09.743Z,9.80
2023-04-12T13:16:36.610Z,9.80
2023-04-12T13:19:03.446Z,9.80
2023-04-12T13:21:30.204Z,9.70
2023-04-12T13:23:57.055Z,9.70
2023-04-12T13:26:25.698Z,9.60
2023-04-12T13:28:52.594Z,9.60
2023-04-12T13:31:19.421Z,9.60
2023-04-12T13:33:46.338Z,9.60
2023-04-12T13:36:13.078Z,9.60
2023-04-12T13:38:53.710Z,9.60
2023-04-12T13:41:24.577Z,9.60
2023-04-12T13:44:01.256Z,9.60
2023-04-12T13:46:28.195Z,9.60
2023-04-12T13:48:55.116Z,9.50
2023-04-12T13:51:21.931Z,9.50
2023-04-12T13:53:48.950Z,9.40
2023-04-12T13:56:18.547Z,9.40
2023-04-12T13:58:45.396Z,9.40
2023-04-12T14:01:47.049Z,9.30
2023-04-12T14:04:16.682Z,9.30
2023-04-12T14:06:46.811Z,9.20
2023-04-12T14:09:53.795Z,9.20
2023-04-12T14:18:10.395Z,9.20
2023-04-12T14:20:40.322Z,9.10
2023-04-12T14:23:20.522Z,9.20
2023-04-12T14:25:47.324Z,9.20
2023-04-12T14:28:17.174Z,9.10
2023-04-12T14:30:44.559Z,9.20
2023-04-12T14:33:14.573Z,9.20
2023-04-12T14:35:41.559Z,9.20
2023-04-12T14:38:08.989Z,9.10
2023-04-12T14:40:36.108Z,9.20
2023-04-12T14:43:02.925Z,9.20
2023-04-12T14:45:29.810Z,9.20
2023-04-12T14:47:56.626Z,9.20
2023-04-12T14:50:23.496Z,9.20
2023-04-12T14:52:50.316Z,9.20
2023-04-12T14:55:17.865Z,9.20
2023-04-12T14:57:44.845Z,9.10
2023-04-12T15:00:16.376Z,9.10
2023-04-12T15:02:46.186Z,9.10
2023-04-12T15:05:13.359Z,9.10
2023-04-12T15:07:41.418Z,9.00
2023-04-12T15:10:09.072Z,9.00
2023-04-12T15:12:37.340Z,9.00
2023-04-12T15:15:06.281Z,9.00
2023-04-12T15:17:34.364Z,9.10
2023-04-12T15:20:09.073Z,9.10
2023-04-12T15:22:36.500Z,9.10
2023-04-12T15:25:04.446Z,9.20
2023-04-12T15:27:31.760Z,9.20
2023-04-12T15:29:59.270Z,9.20
2023-04-12T15:32:29.690Z,9.20
2023-04-12T15:34:56.504Z,9.20
2023-04-12T15:37:23.702Z,9.20
2023-04-12T15:39:50.554Z,9.20
2023-04-12T15:42:17.373Z,9.20
2023-04-12T15:44:45.379Z,9.20
2023-04-12T15:47:12.307Z,9.20
2023-04-12T15:49:39.939Z,9.10
2023-04-12T15:52:07.019Z,9.10
2023-04-12T15:54:35.052Z,9.00
2023-04-12T15:57:09.417Z,9.00
2023-04-12T15:59:39.626Z,8.90
2023-04-12T16:02:08.965Z,8.90
2023-04-12T16:04:39.446Z,8.90
2023-04-12T16:07:06.382Z,8.90
2023-04-12T16:09:33.133Z,8.90
2023-04-12T16:12:04.294Z,8.80
2023-04-12T16:14:32.585Z,8.80
2023-04-12T16:16:59.929Z,8.80
2023-04-12T16:19:26.734Z,8.70
2023-04-12T16:21:53.511Z,8.70
2023-04-12T16:24:20.587Z,8.70
2023-04-12T16:26:48.148Z,8.70
2023-04-12T16:29:14.931Z,8.70
2023-04-12T16:31:42.194Z,8.70
2023-04-12T16:34:10.020Z,8.60
2023-04-12T16:36:37.505Z,8.60
2023-04-12T16:39:06.308Z,8.60
2023-04-12T16:41:33.188Z,8.60
2023-04-12T16:44:01.537Z,8.60
2023-04-12T16:46:28.613Z,8.60
2023-04-12T16:48:55.570Z,8.60
2023-04-12T16:51:22.514Z,8.50
2023-04-12T16:53:49.344Z,8.50
2023-04-12T16:56:17.533Z,8.50
2023-04-12T16:58:45.744Z,8.50
2023-04-12T17:01:16.384Z,8.50
2023-04-12T17:03:44.017Z,8.40
2023-04-12T17:06:10.873Z,8.40
2023-04-12T17:08:37.810Z,8.40
2023-04-12T17:11:04.762Z,8.40
2023-04-12T17:13:31.545Z,8.40
2023-04-12T17:15:58.896Z,8.40
2023-04-12T17:18:25.750Z,8.40
2023-04-12T17:20:52.689Z,8.40
2023-04-12T17:23:20.844Z,8.40
2023-04-12T17:25:48.066Z,8.40
2023-04-12T17:28:15.275Z,8.40
2023-04-12T17:30:42.155Z,8.40
2023-04-12T17:33:09.018Z,8.40
2023-04-12T17:35:36.625Z,8.40
2023-04-12T17:38:03.427Z,8.40
2023-04-12T17:40:30.543Z,8.40
2023-04-12T17:42:57.291Z,8.30
2023-04-12T17:45:24.280Z,8.30
2023-04-12T17:47:51.573Z,8.30
2023-04-12T17:50:18.561Z,8.30
2023-04-12T17:52:45.608Z,8.30
2023-04-12T17:55:12.855Z,8.30
2023-04-12T17:57:39.988Z,8.30
2023-04-12T18:00:11.818Z,8.30
2023-04-12T18:02:39.846Z,8.30
2023-04-12T18:05:07.548Z,8.30
2023-04-12T18:07:34.494Z,8.30
2023-04-12T18:10:02.377Z,8.30
2023-04-12T18:12:29.259Z,8.30
2023-04-12T18:14:56.149Z,8.30
2023-04-12T18:17:24.440Z,8.30
2023-04-12T18:19:53.174Z,8.30
2023-04-12T18:22:19.969Z,8.30
2023-04-12T18:24:46.790Z,8.30
2023-04-12T18:27:13.591Z,8.30
2023-04-12T18:29:40.553Z,8.30
2023-04-12T18:32:07.442Z,8.20
2023-04-12T18:34:34.263Z,8.20
2023-04-12T18:37:04.019Z,8.20
2023-04-12T18:39:31.083Z,8.20
2023-04-12T18:41:58.180Z,8.20
2023-04-12T18:44:25.507Z,8.20
2023-04-12T18:46:52.728Z,8.20
2023-04-12T18:49:19.657Z,8.20
2023-04-12T18:51:46.753Z,8.20
2023-04-12T18:54:15.125Z,8.20
2023-04-12T18:56:44.783Z,8.20
2023-04-12T18:59:17.264Z,8.20
2023-04-12T19:01:44.924Z,8.20
2023-04-12T19:04:12.175Z,8.20
2023-04-12T19:06:39.135Z,8.20
2023-04-12T19:09:06.284Z,8.20
2023-04-12T19:11:35.515Z,8.20
2023-04-12T19:14:03.816Z,8.20
2023-04-12T19:16:32.365Z,8.20
2023-04-12T19:19:00.195Z,8.30
2023-04-12T19:21:30.057Z,8.20
2023-04-12T19:23:57.010Z,8.30
2023-04-12T19:26:24.110Z,8.30
2023-04-12T19:28:55.422Z,8.30
2023-04-12T19:31:23.605Z,8.30
2023-04-12T19:33:50.480Z,8.30
2023-04-12T19:36:17.405Z,8.30
2023-04-12T19:38:48.618Z,8.30
2023-04-12T19:41:17.722Z,8.30
2023-04-12T19:43:44.476Z,8.30
2023-04-12T19:46:11.821Z,8.30
2023-04-12T19:48:38.834Z,8.30
2023-04-12T19:51:05.827Z,8.30
2023-04-12T19:53:33.347Z,8.30
2023-04-12T19:56:00.847Z,8.30
2023-04-12T19:58:27.760Z,8.30
2023-04-12T20:00:54.987Z,8.30
2023-04-12T20:03:24.501Z,8.30
2023-04-12T20:05:51.523Z,8.30
2023-04-12T20:08:18.274Z,8.30
2023-04-12T20:10:45.137Z,8.30
2023-04-12T20:13:15.371Z,8.30
2023-04-12T20:15:42.889Z,8.30
2023-04-12T20:18:11.401Z,8.30
2023-04-12T20:20:38.308Z,8.30
2023-04-12T20:23:05.198Z,8.30
2023-04-12T20:25:37.746Z,8.30
2023-04-12T20:28:04.739Z,8.20
2023-04-12T20:30:31.577Z,8.20
2023-04-12T20:32:58.703Z,8.20
2023-04-12T20:35:25.759Z,8.20
2023-04-12T20:37:52.904Z,8.20
2023-04-12T20:40:20.564Z,8.20
2023-04-12T20:42:47.841Z,8.20
2023-04-12T20:45:17.775Z,8.20
2023-04-12T20:47:44.939Z,8.20
2023-04-12T20:50:12.440Z,8.20
2023-04-12T20:52:39.602Z,8.20
2023-04-12T20:55:07.408Z,8.20
2023-04-12T20:57:35.106Z,8.20
2023-04-12T21:00:07.103Z,8.20
2023-04-12T21:02:34.258Z,8.20
2023-04-12T21:05:01.199Z,8.20
2023-04-12T21:07:28.084Z,8.10
2023-04-12T21:09:54.877Z,8.10
2023-04-12T21:12:21.723Z,8.10
2023-04-12T21:14:50.405Z,8.10
2023-04-12T21:17:22.389Z,8.10
2023-04-12T21:19:50.278Z,8.10
2023-04-12T21:22:17.274Z,8.10
2023-04-12T21:24:44.612Z,8.00
2023-04-12T21:27:11.412Z,8.00
2023-04-12T21:29:41.378Z,7.90
2023-04-12T21:32:09.371Z,7.90
2023-04-12T21:34:37.288Z,7.80
2023-04-12T21:37:04.342Z,7.80
2023-04-12T21:39:32.347Z,7.70
2023-04-12T21:41:59.131Z,7.60
2023-04-12T21:44:26.681Z,7.60
2023-04-12T21:46:53.557Z,7.50
2023-04-12T21:49:20.505Z,7.50
2023-04-12T21:51:49.128Z,7.50
2023-04-12T21:54:16.434Z,7.40
2023-04-12T21:56:43.453Z,7.40
2023-04-12T21:59:10.286Z,7.40
2023-04-12T22:01:37.391Z,7.40
2023-04-12T22:04:04.351Z,7.30
2023-04-12T22:06:31.377Z,7.30
2023-04-12T22:09:01.883Z,7.30
2023-04-12T22:11:30.517Z,7.30
2023-04-12T22:13:57.994Z,7.20
2023-04-12T22:16:24.972Z,7.20
2023-04-12T22:18:52.921Z,7.20
2023-04-12T22:21:19.831Z,7.20
2023-04-12T22:23:46.800Z,7.30
2023-04-12T22:26:13.738Z,7.20
2023-04-12T22:28:41.425Z,7.20
2023-04-12T22:31:08.605Z,7.20
2023-04-12T22:33:36.955Z,7.20
2023-04-12T22:36:06.044Z,7.20
2023-04-12T22:38:37.161Z,7.20
2023-04-12T22:41:04.222Z,7.20
2023-04-12T22:43:42.608Z,7.20
2023-04-12T22:46:16.174Z,7.20
2023-04-12T22:48:49.532Z,7.20
2023-04-12T22:51:16.664Z,7.10
2023-04-12T22:53:43.699Z,7.10
2023-04-12T22:56:11.261Z,7.10
2023-04-12T22:58:40.182Z,7.10
2023-04-12T23:01:07.343Z,7.10
2023-04-12T23:03:34.336Z,7.10
2023-04-12T23:06:01.151Z,7.00
2023-04-12T23:08:29.068Z,7.00
2023-04-12T23:11:02.353Z,7.00
2023-04-12T23:13:29.834Z,7.00
2023-04-12T23:15:57.005Z,6.90
2023-04-12T23:18:25.759Z,6.90
2023-04-12T23:20:53.967Z,6.90
2023-04-12T23:23:23.538Z,6.90
2023-04-12T23:25:50.670Z,6.90
2023-04-12T23:28:19.424Z,6.80
2023-04-12T23:30:48.904Z,6.80
2023-04-12T23:33:20.213Z,6.80
2023-04-12T23:35:52.488Z,6.80
2023-04-12T23:38:35.389Z,6.80
2023-04-12T23:41:04.201Z,6.70
2023-04-12T23:43:32.669Z,6.70
2023-04-12T23:45:59.986Z,6.70
2023-04-12T23:48:27.192Z,6.70
2023-04-12T23:50:54.303Z,6.60
2023-04-12T23:53:21.530Z,6.60
2023-04-12T23:55:50.380Z,6.60
2023-04-12T23:58:17.803Z,6.50
